Time;durP1;ratioP1;P1;durP2;ratioP2;P2;SDS_P1;SDS_P2;PMS_P1;PMS_P2;Temp;Humidity;BMP_temperature;BMP_pressure;BME280_temperature;BME280_humidity;BME280_pressure;Samples;Min_cycle;Max_cycle;Signal;HPM_P1;HPM_P2
2022/01/01 00:02:55;;;;;;;22.30;11.43;;;12.70;99.90;;;;;;7332168;32;20803;-65
2022/01/01 00:06:57;;;;;;;24.15;12.43;;;12.70;99.90;;;;;;7328152;32;20137;-66
2022/01/01 00:10:59;;;;;;;23.62;11.00;;;12.60;99.90;;;;;;7331769;32;20213;-64
2022/01/01 00:15:21;;;;;;;19.75;10.10;;;12.70;99.90;;;;;;7327488;32;20199;-66
2022/01/01 00:19:23;;;;;;;22.37;10.98;;;12.70;99.90;;;;;;7329932;32;20115;-67
2022/01/01 00:23:28;;;;;;;22.87;10.88;;;12.70;99.90;;;;;;7326029;32;20487;-66
2022/01/01 00:27:30;;;;;;;23.65;13.05;;;12.70;99.90;;;;;;7329012;32;20104;-65
2022/01/01 00:31:31;;;;;;;23.12;11.30;;;12.60;99.90;;;;;;7329509;32;20126;-65
2022/01/01 00:35:33;;;;;;;19.05;10.70;;;12.70;99.90;;;;;;7335124;32;20248;-66
2022/01/01 00:39:34;;;;;;;25.37;12.75;;;12.70;99.90;;;;;;7335589;32;20141;-66
2022/01/01 00:43:36;;;;;;;26.73;11.85;;;12.70;99.90;;;;;;7327752;32;20195;-67
2022/01/01 00:47:38;;;;;;;22.92;11.12;;;12.80;99.90;;;;;;7330049;32;20256;-63
2022/01/01 00:51:39;;;;;;;23.98;10.80;;;12.80;99.90;;;;;;7322533;32;20601;-65
2022/01/01 00:55:41;;;;;;;25.23;11.85;;;12.70;99.90;;;;;;7335533;32;20605;-64
2022/01/01 00:59:43;;;;;;;20.95;9.63;;;12.60;99.90;;;;;;7336863;32;20111;-65
2022/01/01 01:03:45;;;;;;;26.55;13.05;;;12.70;99.90;;;;;;7327309;32;20107;-65
2022/01/01 01:07:47;;;;;;;20.37;10.05;;;12.70;99.90;;;;;;7328237;32;20161;-65
2022/01/01 01:11:51;;;;;;;18.52;8.95;;;12.80;99.90;;;;;;7329529;32;20138;-65
2022/01/01 01:15:53;;;;;;;23.17;9.70;;;12.80;99.90;;;;;;7329393;32;20125;-66
2022/01/01 01:19:55;;;;;;;19.45;9.90;;;12.70;99.90;;;;;;7327032;32;20144;-65
2022/01/01 01:23:57;;;;;;;28.17;11.98;;;12.80;99.90;;;;;;7330582;32;20989;-65
2022/01/01 01:28:06;;;;;;;29.23;13.88;;;12.80;99.90;;;;;;7331796;32;20111;-65
2022/01/01 01:32:08;;;;;;;21.08;10.93;;;12.70;99.90;;;;;;7334186;32;20126;-65
2022/01/01 01:36:11;;;;;;;20.40;10.90;;;12.70;99.90;;;;;;7326398;32;20123;-64
2022/01/01 01:40:13;;;;;;;28.58;12.32;;;12.70;99.90;;;;;;7327922;32;20229;-64
2022/01/01 01:44:26;;;;;;;34.60;18.20;;;12.80;99.90;;;;;;7324438;32;20878;-64
2022/01/01 01:48:31;;;;;;;22.45;13.05;;;12.70;99.90;;;;;;7342747;32;20112;-64
2022/01/01 01:52:37;;;;;;;27.05;13.88;;;12.70;99.90;;;;;;7329389;32;20138;-65
2022/01/01 01:56:39;;;;;;;24.55;13.13;;;12.70;99.90;;;;;;7337667;32;20547;-64
2022/01/01 02:04:43;;;;;;;24.60;14.32;;;12.70;99.90;;;;;;7330245;32;20177;-65
2022/01/01 02:08:45;;;;;;;28.65;14.50;;;12.60;99.90;;;;;;7332042;32;20558;-64
2022/01/01 02:12:52;;;;;;;29.77;15.20;;;12.70;99.90;;;;;;7328528;32;20194;-64
2022/01/01 02:17:08;;;;;;;28.35;15.35;;;12.70;99.90;;;;;;7329119;32;20108;-65
2022/01/01 02:21:11;;;;;;;27.13;14.35;;;12.70;99.90;;;;;;7329974;32;20123;-65
2022/01/01 02:25:15;;;;;;;29.75;14.98;;;12.70;99.90;;;;;;7327517;32;20530;-65
2022/01/01 02:29:17;;;;;;;29.65;15.48;;;12.50;99.90;;;;;;7326553;32;20626;-65
2022/01/01 02:33:19;;;;;;;28.85;14.75;;;12.60;99.90;;;;;;7333884;32;20111;-65
2022/01/01 02:37:21;;;;;;;25.73;14.55;;;12.60;99.90;;;;;;7330158;32;20695;-65
2022/01/01 02:41:22;;;;;;;25.52;14.50;;;12.60;99.90;;;;;;7328711;32;20671;-65
2022/01/01 02:45:24;;;;;;;32.78;16.10;;;12.70;99.90;;;;;;7328539;32;20145;-65
2022/01/01 02:49:26;;;;;;;36.22;17.10;;;12.70;99.90;;;;;;7329214;32;20133;-65
2022/01/01 02:53:27;;;;;;;41.58;16.95;;;12.70;99.90;;;;;;7331167;32;20114;-65
2022/01/01 02:57:30;;;;;;;34.22;19.17;;;12.70;99.90;;;;;;7328467;32;20134;-65
2022/01/01 03:01:31;;;;;;;38.17;18.77;;;12.60;99.90;;;;;;7332052;32;20111;-65
2022/01/01 03:05:35;;;;;;;34.17;18.70;;;12.60;99.90;;;;;;7337979;32;20761;-65
2022/01/01 03:09:37;;;;;;;32.05;18.48;;;12.70;99.90;;;;;;7319475;32;20191;-65
2022/01/01 03:13:39;;;;;;;33.58;17.40;;;12.70;99.90;;;;;;7317189;32;20107;-65
2022/01/01 03:17:40;;;;;;;29.85;17.20;;;12.70;99.90;;;;;;7327335;32;20104;-65
2022/01/01 03:21:42;;;;;;;32.17;16.42;;;12.70;99.90;;;;;;7311971;32;20134;-64
2022/01/01 03:25:44;;;;;;;27.87;16.83;;;12.80;99.90;;;;;;7337741;32;20107;-65
2022/01/01 03:29:45;;;;;;;26.45;15.57;;;12.70;99.90;;;;;;7328555;32;20190;-65
2022/01/01 03:33:47;;;;;;;33.28;16.50;;;12.60;99.90;;;;;;7345963;32;20290;-64
2022/01/01 03:37:49;;;;;;;26.50;14.48;;;12.60;99.90;;;;;;7325292;32;20133;-64
2022/01/01 03:41:50;;;;;;;28.58;13.38;;;12.60;99.90;;;;;;7330151;32;20202;-64
2022/01/01 03:45:52;;;;;;;25.70;11.27;;;12.60;99.90;;;;;;7325501;32;20257;-64
2022/01/01 03:49:54;;;;;;;18.90;10.25;;;12.60;99.90;;;;;;7328345;32;20221;-65
2022/01/01 03:53:55;;;;;;;22.65;10.30;;;12.70;99.90;;;;;;7328037;32;20892;-64
2022/01/01 03:57:57;;;;;;;21.60;9.02;;;12.60;99.90;;;;;;7331121;32;20209;-64
2022/01/01 04:01:59;;;;;;;19.25;7.65;;;12.70;99.90;;;;;;7336527;32;20566;-64
2022/01/01 04:06:00;;;;;;;17.48;7.45;;;12.70;99.90;;;;;;7327972;32;20116;-65
2022/01/01 04:10:03;;;;;;;12.15;6.15;;;12.60;99.90;;;;;;7327188;32;20107;-64
2022/01/01 04:14:04;;;;;;;13.88;6.20;;;12.60;99.90;;;;;;7336097;32;20137;-65
2022/01/01 04:18:12;;;;;;;16.05;6.20;;;12.60;99.90;;;;;;7325523;32;20126;-64
2022/01/01 04:22:15;;;;;;;12.48;5.97;;;12.60;99.90;;;;;;7323233;32;20146;-65
2022/01/01 04:26:17;;;;;;;15.10;5.57;;;12.60;99.90;;;;;;7327492;32;20230;-64
2022/01/01 04:30:18;;;;;;;12.65;5.15;;;12.70;99.90;;;;;;7331405;32;20126;-64
2022/01/01 04:34:20;;;;;;;14.20;5.50;;;12.70;99.90;;;;;;7312129;32;20143;-64
2022/01/01 04:38:35;;;;;;;14.85;5.37;;;12.70;99.90;;;;;;7327095;32;20116;-65
2022/01/01 04:42:36;;;;;;;17.50;5.87;;;12.70;99.90;;;;;;7333591;32;20226;-64
2022/01/01 04:46:38;;;;;;;15.35;6.05;;;12.80;99.90;;;;;;7327005;32;20571;-65
2022/01/01 04:50:40;;;;;;;17.23;5.87;;;12.70;99.90;;;;;;7322645;32;20180;-64
2022/01/01 04:54:43;;;;;;;15.20;5.82;;;12.60;99.90;;;;;;7339300;32;20115;-64
2022/01/01 04:58:46;;;;;;;14.70;6.50;;;12.70;99.90;;;;;;7329590;32;20104;-64
2022/01/01 05:02:48;;;;;;;17.05;6.05;;;12.70;99.90;;;;;;7331698;32;20141;-63
2022/01/01 05:06:51;;;;;;;13.80;5.80;;;12.80;99.90;;;;;;7331997;32;20126;-64
2022/01/01 05:10:53;;;;;;;19.02;6.60;;;12.70;99.90;;;;;;7326689;32;20368;-64
2022/01/01 05:14:55;;;;;;;14.75;6.43;;;12.80;99.90;;;;;;7319146;32;20111;-63
2022/01/01 05:18:56;;;;;;;13.38;6.25;;;12.80;99.90;;;;;;7315561;32;20596;-63
2022/01/01 05:22:58;;;;;;;13.88;5.82;;;12.80;99.90;;;;;;7326127;32;20294;-63
2022/01/01 05:27:00;;;;;;;15.07;6.82;;;12.70;99.90;;;;;;7326954;32;20108;-64
2022/01/01 05:31:02;;;;;;;12.68;5.37;;;12.70;99.90;;;;;;7325773;32;20115;-64
2022/01/01 05:35:04;;;;;;;15.75;6.57;;;12.60;99.90;;;;;;7324603;32;20107;-63
2022/01/01 05:39:08;;;;;;;14.52;5.68;;;12.70;99.90;;;;;;7322969;32;20137;-63
2022/01/01 05:43:13;;;;;;;16.48;5.43;;;12.60;99.90;;;;;;7325678;32;20265;-64
2022/01/01 05:47:15;;;;;;;14.23;5.68;;;12.70;99.90;;;;;;7308008;32;20404;-63
2022/01/01 05:51:17;;;;;;;12.07;4.87;;;12.70;99.90;;;;;;7331492;32;20269;-64
2022/01/01 05:55:19;;;;;;;14.23;5.07;;;12.70;99.90;;;;;;7309273;32;20115;-63
2022/01/01 05:59:20;;;;;;;14.35;4.50;;;12.70;99.90;;;;;;7330719;32;20104;-64
2022/01/01 06:03:22;;;;;;;14.75;4.57;;;12.80;99.90;;;;;;7326392;32;20575;-63
2022/01/01 06:07:23;;;;;;;9.85;4.03;;;12.70;99.90;;;;;;7328299;32;20600;-63
2022/01/01 06:11:25;;;;;;;10.98;4.03;;;12.70;99.90;;;;;;7329189;32;20560;-64
2022/01/01 06:15:27;;;;;;;14.15;4.47;;;12.70;99.90;;;;;;7320494;32;20218;-63
2022/01/01 06:19:29;;;;;;;11.27;4.00;;;12.60;99.90;;;;;;7336549;32;20474;-63
2022/01/01 06:23:31;;;;;;;10.30;3.90;;;12.60;99.90;;;;;;7327271;32;20510;-64
2022/01/01 06:27:32;;;;;;;7.05;3.65;;;12.70;99.90;;;;;;7329063;32;20557;-63
2022/01/01 06:31:34;;;;;;;11.18;4.25;;;12.80;99.90;;;;;;7321585;32;20218;-64
2022/01/01 06:35:36;;;;;;;11.88;3.60;;;12.70;99.90;;;;;;7327052;32;20282;-63
2022/01/01 06:39:38;;;;;;;10.68;3.83;;;12.80;99.90;;;;;;7322210;32;20155;-63
2022/01/01 06:43:40;;;;;;;11.82;4.37;;;12.70;99.90;;;;;;7322801;32;20511;-63
2022/01/01 06:47:42;;;;;;;9.02;3.87;;;12.70;99.90;;;;;;7320641;32;20115;-64
2022/01/01 06:51:43;;;;;;;12.85;3.47;;;12.70;99.90;;;;;;7329835;32;20107;-64
2022/01/01 06:55:45;;;;;;;8.52;3.55;;;12.70;99.90;;;;;;7302252;32;20569;-64
2022/01/01 06:59:47;;;;;;;11.02;4.18;;;12.70;99.90;;;;;;7325160;32;20193;-64
2022/01/01 07:03:48;;;;;;;13.18;3.67;;;12.70;99.90;;;;;;7339136;32;20115;-64
2022/01/01 07:07:50;;;;;;;8.43;3.25;;;12.60;99.90;;;;;;7314145;32;20559;-64
2022/01/01 07:11:52;;;;;;;13.07;4.35;;;12.60;99.90;;;;;;7327343;32;20121;-64
2022/01/01 07:15:54;;;;;;;9.38;3.70;;;12.60;99.90;;;;;;7332668;32;20632;-64
2022/01/01 07:19:55;;;;;;;11.10;4.05;;;12.60;99.90;;;;;;7317349;32;20130;-64
2022/01/01 07:23:57;;;;;;;15.00;4.12;;;12.60;99.90;;;;;;7328939;32;20430;-64
2022/01/01 07:27:59;;;;;;;9.88;3.78;;;12.60;99.90;;;;;;7334553;32;20108;-64
2022/01/01 07:32:01;;;;;;;11.02;3.72;;;12.50;99.90;;;;;;7330335;32;20129;-63
2022/01/01 07:36:03;;;;;;;8.27;3.08;;;12.50;99.90;;;;;;7336267;32;20111;-64
2022/01/01 07:40:08;;;;;;;11.63;3.90;;;12.50;99.90;;;;;;7321996;32;20141;-61
2022/01/01 07:44:10;;;;;;;9.80;3.28;;;12.60;99.90;;;;;;7323554;32;20139;-64
2022/01/01 07:48:12;;;;;;;9.32;3.65;;;12.50;99.90;;;;;;7322574;32;20162;-62
2022/01/01 07:52:14;;;;;;;10.38;3.67;;;12.50;99.90;;;;;;7332915;32;20472;-62
2022/01/01 07:56:16;;;;;;;10.10;2.67;;;12.50;99.90;;;;;;7326616;32;20562;-63
2022/01/01 08:00:17;;;;;;;6.93;3.10;;;12.50;99.90;;;;;;7309719;32;20314;-62
2022/01/01 08:04:19;;;;;;;9.75;2.87;;;12.60;99.90;;;;;;7330579;32;20103;-63
2022/01/01 08:08:22;;;;;;;13.05;2.80;;;12.60;99.90;;;;;;7328336;32;20244;-63
2022/01/01 08:12:23;;;;;;;11.80;2.80;;;12.60;99.90;;;;;;7312748;32;20107;-62
2022/01/01 08:16:26;;;;;;;10.80;2.75;;;12.50;99.90;;;;;;7315007;32;20104;-62
2022/01/01 08:20:28;;;;;;;9.68;3.10;;;12.60;99.90;;;;;;7328694;32;20258;-62
2022/01/01 08:24:29;;;;;;;7.05;2.33;;;12.60;99.90;;;;;;7326344;32;20128;-62
2022/01/01 08:28:31;;;;;;;13.15;2.67;;;12.60;99.90;;;;;;7319231;32;20130;-63
2022/01/01 08:32:33;;;;;;;10.27;2.45;;;12.60;99.90;;;;;;7324380;32;20115;-63
2022/01/01 08:36:35;;;;;;;8.07;2.70;;;12.60;99.90;;;;;;7328967;32;20138;-62
2022/01/01 08:40:37;;;;;;;10.73;2.97;;;12.60;99.90;;;;;;7330247;32;20112;-62
2022/01/01 08:44:39;;;;;;;8.35;2.58;;;12.70;99.90;;;;;;7325802;32;20138;-62
2022/01/01 08:48:41;;;;;;;11.43;2.35;;;12.60;99.90;;;;;;7335835;32;20107;-62
2022/01/01 08:52:43;;;;;;;9.65;2.70;;;12.70;99.90;;;;;;7325700;32;20119;-63
2022/01/01 08:56:48;;;;;;;11.75;2.80;;;12.70;99.90;;;;;;7329155;32;20206;-62
2022/01/01 09:00:49;;;;;;;8.50;2.50;;;12.70;99.90;;;;;;7325193;32;20130;-63
2022/01/01 09:04:51;;;;;;;8.55;2.30;;;12.80;99.90;;;;;;7322216;32;20111;-63
2022/01/01 09:08:53;;;;;;;9.68;2.30;;;12.80;99.90;;;;;;7337032;32;20111;-62
2022/01/01 09:12:55;;;;;;;10.80;2.50;;;12.80;99.90;;;;;;7323334;32;20130;-64
2022/01/01 09:16:56;;;;;;;9.15;2.55;;;12.90;99.90;;;;;;7329443;32;20118;-65
2022/01/01 09:20:58;;;;;;;10.30;2.20;;;12.90;99.90;;;;;;7327951;32;20214;-65
2022/01/01 09:25:01;;;;;;;7.22;1.95;;;13.10;99.90;;;;;;7322575;32;20111;-65
2022/01/01 09:29:04;;;;;;;7.72;2.42;;;13.10;99.90;;;;;;7325049;32;20115;-64
2022/01/01 09:33:06;;;;;;;6.40;1.67;;;13.30;99.90;;;;;;7326109;32;20119;-64
2022/01/01 09:37:08;;;;;;;7.90;2.20;;;13.30;99.90;;;;;;7330031;32;20206;-64
2022/01/01 09:41:12;;;;;;;6.07;1.95;;;13.40;99.90;;;;;;7344481;32;20231;-63
2022/01/01 09:45:15;;;;;;;11.27;2.10;;;13.50;99.90;;;;;;7328414;32;20134;-63
2022/01/01 09:49:18;;;;;;;6.12;1.92;;;13.50;99.90;;;;;;7324832;32;20139;-63
2022/01/01 09:53:23;;;;;;;11.98;2.10;;;13.50;99.90;;;;;;7335959;32;20193;-62
2022/01/01 09:57:25;;;;;;;6.53;1.83;;;13.60;99.90;;;;;;7324819;32;20131;-63
2022/01/01 10:01:26;;;;;;;7.45;2.05;;;13.60;99.90;;;;;;7334702;32;20111;-63
2022/01/01 10:05:28;;;;;;;8.80;2.22;;;13.70;99.90;;;;;;7332649;32;20630;-63
2022/01/01 10:09:34;;;;;;;10.25;2.65;;;13.80;99.90;;;;;;7334809;32;20131;-63
2022/01/01 10:13:38;;;;;;;5.50;1.83;;;13.90;99.90;;;;;;7327017;32;20123;-63
2022/01/01 10:17:40;;;;;;;5.37;1.65;;;14.00;99.90;;;;;;7329962;32;20138;-64
2022/01/01 10:21:42;;;;;;;7.70;1.90;;;13.90;99.90;;;;;;7325677;32;20414;-63
2022/01/01 10:30:05;;;;;;;5.25;1.85;;;14.00;99.90;;;;;;7331648;32;20479;-62
2022/01/01 10:34:12;;;;;;;6.50;1.65;;;14.20;99.90;;;;;;7333951;32;20103;-66
2022/01/01 10:38:22;;;;;;;7.20;1.65;;;14.20;99.90;;;;;;7333442;32;20206;-63
2022/01/01 10:42:24;;;;;;;7.10;2.30;;;14.20;99.90;;;;;;7335114;32;20130;-64
2022/01/01 10:46:28;;;;;;;5.87;1.40;;;14.30;99.90;;;;;;7327373;32;20130;-64
2022/01/01 10:50:34;;;;;;;6.40;1.70;;;14.30;99.90;;;;;;7327103;32;20116;-64
2022/01/01 10:54:37;;;;;;;7.67;1.87;;;14.30;99.90;;;;;;7324244;32;20574;-65
2022/01/01 10:58:38;;;;;;;6.07;1.83;;;14.30;99.90;;;;;;7334049;32;20232;-64
2022/01/01 11:02:49;;;;;;;7.40;2.10;;;14.40;99.90;;;;;;7330987;32;20107;-64
2022/01/01 11:06:50;;;;;;;5.10;1.92;;;14.50;99.90;;;;;;7326184;32;20167;-63
2022/01/01 11:10:52;;;;;;;6.32;2.25;;;14.50;99.90;;;;;;7328194;32;20116;-64
2022/01/01 11:14:55;;;;;;;10.82;3.10;;;14.50;99.90;;;;;;7341494;32;20585;-64
2022/01/01 11:18:58;;;;;;;6.00;2.30;;;14.50;99.90;;;;;;7327650;32;20112;-63
2022/01/01 11:23:11;;;;;;;8.50;2.15;;;14.60;99.90;;;;;;7331867;32;20538;-64
2022/01/01 11:27:13;;;;;;;4.55;1.52;;;14.60;99.90;;;;;;7323497;32;20535;-65
2022/01/01 11:31:18;;;;;;;5.45;1.75;;;14.70;99.90;;;;;;7330781;32;20173;-65
2022/01/01 11:35:30;;;;;;;6.35;1.75;;;14.70;99.90;;;;;;7327238;32;20130;-63
2022/01/01 11:39:32;;;;;;;3.90;1.62;;;14.80;99.90;;;;;;7325949;32;20494;-63
2022/01/01 11:43:44;;;;;;;6.10;1.40;;;14.80;99.90;;;;;;7321999;32;20120;-64
2022/01/01 11:47:48;;;;;;;5.00;1.80;;;14.80;99.90;;;;;;7328455;32;20108;-63
2022/01/01 11:51:52;;;;;;;4.65;1.35;;;14.70;99.90;;;;;;7327386;32;20129;-63
2022/01/01 11:56:06;;;;;;;6.47;1.73;;;14.70;99.90;;;;;;7326022;32;20711;-67
2022/01/01 12:00:12;;;;;;;8.23;1.77;;;14.70;99.90;;;;;;7331772;32;20133;-67
2022/01/01 12:04:32;;;;;;;7.12;1.50;;;14.60;99.90;;;;;;7327609;32;20131;-68
2022/01/01 12:08:42;;;;;;;3.40;1.48;;;14.80;99.90;;;;;;7330620;32;20115;-68
2022/01/01 12:12:54;;;;;;;7.07;1.48;;;14.70;99.90;;;;;;7328503;32;20754;-62
2022/01/01 12:16:56;;;;;;;4.47;1.30;;;14.80;99.90;;;;;;7322646;32;20135;-63
2022/01/01 12:21:03;;;;;;;5.30;1.87;;;14.80;99.90;;;;;;7325106;32;20234;-64
2022/01/01 12:25:07;;;;;;;6.37;1.75;;;14.90;99.90;;;;;;7325645;32;20154;-64
2022/01/01 12:29:11;;;;;;;7.95;1.62;;;15.00;99.90;;;;;;7329648;32;20760;-64
2022/01/01 12:33:41;;;;;;;8.77;2.10;;;15.00;99.90;;;;;;7337533;32;22233;-64
2022/01/01 12:37:43;;;;;;;5.35;1.90;;;14.90;99.90;;;;;;7332501;32;20901;-64
2022/01/01 12:41:45;;;;;;;7.60;2.03;;;14.90;99.90;;;;;;7332255;32;20211;-64
2022/01/01 12:45:53;;;;;;;5.45;1.83;;;14.80;99.90;;;;;;7330925;32;20149;-64
2022/01/01 12:49:58;;;;;;;7.00;2.33;;;14.80;99.90;;;;;;7332860;32;20164;-63
2022/01/01 12:54:02;;;;;;;4.28;1.85;;;14.60;99.90;;;;;;7327117;32;20150;-63
2022/01/01 12:58:09;;;;;;;7.28;1.92;;;14.50;99.90;;;;;;7317903;32;20108;-64
2022/01/01 13:02:13;;;;;;;4.00;1.87;;;14.50;99.90;;;;;;7335759;32;20107;-65
2022/01/01 13:06:32;;;;;;;6.87;2.25;;;14.50;99.90;;;;;;7331914;32;20137;-64
2022/01/01 13:10:34;;;;;;;5.10;2.03;;;14.40;99.90;;;;;;7325721;32;20112;-63
2022/01/01 13:14:37;;;;;;;4.55;2.10;;;14.30;99.90;;;;;;7325570;32;20145;-64
2022/01/01 13:18:38;;;;;;;8.68;2.33;;;14.30;99.90;;;;;;7336614;32;20194;-63
2022/01/01 13:22:40;;;;;;;5.37;2.20;;;14.40;99.90;;;;;;7350009;32;20474;-64
2022/01/01 13:26:43;;;;;;;6.45;2.33;;;14.40;99.90;;;;;;7341365;32;20111;-64
2022/01/01 13:30:45;;;;;;;11.52;2.15;;;14.40;99.90;;;;;;7338035;32;20107;-63
2022/01/01 13:34:52;;;;;;;6.45;2.37;;;14.30;99.90;;;;;;7326047;32;20115;-64
2022/01/01 13:38:55;;;;;;;5.00;1.98;;;14.30;99.90;;;;;;7347767;32;20103;-63
2022/01/01 13:43:08;;;;;;;4.75;2.15;;;14.40;99.90;;;;;;7339705;32;20500;-62
2022/01/01 13:47:14;;;;;;;3.92;1.73;;;14.30;99.90;;;;;;7341532;32;20554;-62
2022/01/01 13:51:19;;;;;;;5.87;2.12;;;14.30;99.90;;;;;;7335065;32;20839;-63
2022/01/01 13:55:26;;;;;;;4.28;1.70;;;14.30;99.90;;;;;;7329183;32;20717;-63
2022/01/01 13:59:29;;;;;;;4.72;1.92;;;14.30;99.90;;;;;;7328261;32;20150;-62
2022/01/01 14:03:31;;;;;;;7.75;1.80;;;14.20;99.90;;;;;;7345231;32;20108;-63
2022/01/01 14:07:33;;;;;;;3.97;1.92;;;14.20;99.90;;;;;;7336070;32;20499;-64
2022/01/01 14:11:37;;;;;;;4.28;1.75;;;14.10;99.90;;;;;;7335515;32;20107;-63
2022/01/01 14:15:39;;;;;;;9.82;2.22;;;14.00;99.90;;;;;;7323449;32;20841;-63
2022/01/01 14:19:41;;;;;;;6.40;1.77;;;14.00;99.90;;;;;;7328500;32;20801;-64
2022/01/01 14:23:44;;;;;;;4.90;2.10;;;13.90;99.90;;;;;;7321263;32;20104;-62
2022/01/01 14:27:46;;;;;;;5.75;1.92;;;13.80;99.90;;;;;;7322741;32;20235;-62
2022/01/01 14:31:48;;;;;;;5.00;2.22;;;13.80;99.90;;;;;;7333421;32;20115;-63
2022/01/01 14:35:58;;;;;;;7.03;2.20;;;13.80;99.90;;;;;;7327677;32;20139;-63
2022/01/01 14:40:00;;;;;;;5.37;2.62;;;13.70;99.90;;;;;;7327631;32;20146;-62
2022/01/01 14:44:03;;;;;;;3.45;2.05;;;13.60;99.90;;;;;;7322096;32;20111;-62
2022/01/01 14:48:18;;;;;;;5.60;2.05;;;13.60;99.90;;;;;;7325464;32;21010;-63
2022/01/01 14:52:43;;;;;;;4.18;1.92;;;13.40;99.90;;;;;;7330993;32;20149;-63
2022/01/01 14:57:14;;;;;;;5.37;2.28;;;13.40;99.90;;;;;;7324796;32;20115;-63
2022/01/01 15:01:16;;;;;;;7.03;2.53;;;13.30;99.90;;;;;;7302183;32;20133;-63
2022/01/01 15:05:18;;;;;;;4.05;2.00;;;13.20;99.90;;;;;;7336459;32;20646;-63
2022/01/01 15:09:21;;;;;;;5.53;2.62;;;13.20;99.90;;;;;;7327784;32;20554;-64
2022/01/01 15:13:23;;;;;;;4.55;2.67;;;13.10;99.90;;;;;;7330942;32;20624;-63
2022/01/01 15:17:26;;;;;;;7.18;2.60;;;13.00;99.90;;;;;;7324044;32;20111;-67
2022/01/01 15:21:27;;;;;;;6.90;2.90;;;13.00;99.90;;;;;;7328056;32;20747;-67
2022/01/01 15:25:30;;;;;;;5.62;2.53;;;13.10;99.90;;;;;;7326092;32;20652;-66
2022/01/01 15:29:44;;;;;;;5.05;2.50;;;13.00;99.90;;;;;;7327298;32;20118;-66
2022/01/01 15:33:46;;;;;;;4.20;2.10;;;12.80;99.90;;;;;;7330742;32;20116;-66
2022/01/01 15:37:59;;;;;;;4.20;2.20;;;12.90;99.90;;;;;;7328950;32;20206;-66
2022/01/01 15:42:21;;;;;;;6.35;2.75;;;12.90;99.90;;;;;;7344211;32;20134;-67
2022/01/01 15:46:23;;;;;;;4.57;2.60;;;13.00;99.90;;;;;;7321092;32;20578;-62
2022/01/01 15:50:25;;;;;;;4.72;2.53;;;13.00;99.90;;;;;;7322314;32;20111;-63
2022/01/01 15:54:27;;;;;;;4.65;2.37;;;12.80;99.90;;;;;;7321084;32;20127;-62
2022/01/01 15:58:55;;;;;;;6.03;3.00;;;12.70;99.90;;;;;;7319020;32;20217;-62
2022/01/01 16:03:30;;;;;;;5.10;2.73;;;12.60;99.90;;;;;;7328307;32;20166;-63
2022/01/01 16:07:34;;;;;;;6.65;3.33;;;12.50;99.90;;;;;;7315633;32;20116;-63
2022/01/01 16:11:37;;;;;;;4.62;2.50;;;12.40;99.90;;;;;;7330750;32;20115;-63
2022/01/01 16:15:39;;;;;;;4.60;2.58;;;12.40;99.90;;;;;;7326297;32;20142;-62
2022/01/01 16:19:42;;;;;;;4.95;2.83;;;12.20;99.90;;;;;;7324257;32;20558;-62
2022/01/01 16:23:45;;;;;;;8.27;3.08;;;12.20;99.90;;;;;;7327220;32;20129;-63
2022/01/01 16:27:51;;;;;;;4.10;2.50;;;12.10;99.90;;;;;;7320331;32;20116;-64
2022/01/01 16:31:53;;;;;;;5.73;2.93;;;12.20;99.90;;;;;;7324508;32;20141;-64
2022/01/01 16:35:55;;;;;;;5.28;2.83;;;12.10;99.90;;;;;;7322975;32;20135;-63
2022/01/01 16:40:02;;;;;;;4.30;2.72;;;12.00;99.90;;;;;;7319328;32;20107;-62
2022/01/01 16:44:23;;;;;;;5.05;3.15;;;12.00;99.90;;;;;;7324100;32;20130;-62
2022/01/01 16:48:40;;;;;;;4.72;2.75;;;11.90;99.90;;;;;;7315731;32;20632;-63
2022/01/01 16:52:46;;;;;;;5.90;2.53;;;12.00;99.90;;;;;;7318244;32;20115;-63
2022/01/01 16:56:54;;;;;;;7.87;3.47;;;12.00;99.90;;;;;;7325920;32;20115;-63
2022/01/01 17:00:58;;;;;;;6.18;3.90;;;11.90;99.90;;;;;;7323443;32;20133;-63
2022/01/01 17:05:05;;;;;;;7.05;3.42;;;11.90;99.90;;;;;;7322708;32;20210;-62
2022/01/01 17:09:07;;;;;;;;;;;11.80;99.90;;;;;;7326074;32;20573;-63
2022/01/01 17:13:08;;;;;;;7.60;3.30;;;11.80;99.90;;;;;;7322912;32;20488;-63
2022/01/01 17:17:30;;;;;;;9.15;4.00;;;11.70;99.90;;;;;;7324161;32;20142;-62
2022/01/01 17:21:39;;;;;;;6.78;4.03;;;11.60;99.90;;;;;;7325784;32;20800;-62
2022/01/01 17:25:42;;;;;;;4.72;3.40;;;11.60;99.90;;;;;;7326746;32;20202;-63
2022/01/01 17:29:47;;;;;;;5.35;3.62;;;11.50;99.90;;;;;;7322065;32;20496;-63
2022/01/01 17:34:27;;;;;;;5.47;3.83;;;11.50;99.90;;;;;;7326665;32;20145;-63
2022/01/01 17:42:33;;;;;;;6.50;3.58;;;11.50;99.90;;;;;;7322738;32;20249;-62
2022/01/01 17:46:35;;;;;;;6.32;3.40;;;11.50;99.90;;;;;;7317377;32;20229;-62
2022/01/01 17:50:43;;;;;;;5.47;3.60;;;11.50;99.90;;;;;;7318637;32;20463;-62
2022/01/01 17:54:45;;;;;;;6.97;3.50;;;11.40;99.90;;;;;;7320511;32;20504;-62
2022/01/01 17:58:47;;;;;;;6.30;3.12;;;11.40;99.90;;;;;;7319764;32;20221;-62
2022/01/01 18:02:49;;;;;;;5.47;3.20;;;11.40;99.90;;;;;;7323247;32;20195;-62
2022/01/01 18:07:09;;;;;;;5.18;3.33;;;11.40;99.90;;;;;;7324380;32;20126;-62
2022/01/01 18:11:19;;;;;;;8.55;3.25;;;11.40;99.90;;;;;;7329256;32;20112;-62
2022/01/01 18:15:21;;;;;;;7.10;3.75;;;11.40;99.90;;;;;;7321131;32;20115;-63
2022/01/01 18:19:29;;;;;;;5.60;3.55;;;11.40;99.90;;;;;;7314912;32;20550;-62
2022/01/01 18:23:33;;;;;;;6.93;3.70;;;11.40;99.90;;;;;;7317553;32;20134;-63
2022/01/01 18:27:38;;;;;;;6.22;3.53;;;11.40;99.90;;;;;;7322739;32;20755;-62
2022/01/01 18:31:40;;;;;;;6.70;3.70;;;11.40;99.90;;;;;;7320232;32;20186;-63
2022/01/01 18:35:42;;;;;;;5.00;3.12;;;11.40;99.90;;;;;;7322366;32;20155;-63
2022/01/01 18:39:45;;;;;;;4.10;2.83;;;11.50;99.90;;;;;;7325088;32;20226;-63
2022/01/01 18:43:48;;;;;;;5.78;3.10;;;11.40;99.90;;;;;;7316989;32;20103;-63
2022/01/01 18:47:50;;;;;;;7.12;3.08;;;11.40;99.90;;;;;;7323590;32;20202;-63
2022/01/01 18:51:53;;;;;;;5.15;3.12;;;11.40;99.90;;;;;;7321099;32;20107;-63
2022/01/01 18:55:58;;;;;;;5.50;3.12;;;11.40;99.90;;;;;;7323097;32;20503;-63
2022/01/01 19:00:04;;;;;;;8.93;3.80;;;11.30;99.90;;;;;;7318428;32;20439;-63
2022/01/01 19:04:08;;;;;;;5.18;3.33;;;11.40;99.90;;;;;;7322494;32;20135;-63
2022/01/01 19:08:13;;;;;;;5.22;3.10;;;11.40;99.90;;;;;;7321204;32;20864;-64
2022/01/01 19:12:23;;;;;;;5.32;3.10;;;11.40;99.90;;;;;;7319573;32;20139;-64
2022/01/01 19:16:25;;;;;;;6.82;3.10;;;11.50;99.90;;;;;;7320754;32;20108;-63
2022/01/01 19:20:29;;;;;;;5.03;3.17;;;11.30;99.90;;;;;;7327121;32;20234;-64
2022/01/01 19:24:31;;;;;;;5.15;2.80;;;11.40;99.90;;;;;;7319977;32;20194;-64
2022/01/01 19:28:33;;;;;;;3.92;2.90;;;11.40;99.90;;;;;;7321310;32;20130;-64
2022/01/01 19:32:36;;;;;;;8.10;2.95;;;11.40;99.90;;;;;;7322144;32;20629;-64
2022/01/01 19:36:37;;;;;;;5.53;2.65;;;11.50;99.90;;;;;;7324817;32;20740;-62
2022/01/01 19:40:49;;;;;;;8.13;3.10;;;11.40;99.90;;;;;;7319681;32;20229;-64
2022/01/01 19:44:59;;;;;;;5.70;2.75;;;11.40;99.90;;;;;;7320410;32;20605;-63
2022/01/01 19:49:02;;;;;;;5.07;2.42;;;11.40;99.90;;;;;;7328229;32;20202;-63
2022/01/01 19:53:06;;;;;;;5.10;3.05;;;11.40;99.90;;;;;;7340137;32;20141;-63
2022/01/01 19:57:08;;;;;;;10.68;3.30;;;11.30;99.90;;;;;;7337017;32;20111;-64
2022/01/01 20:01:10;;;;;;;4.50;2.90;;;11.30;99.90;;;;;;7325683;32;20194;-64
2022/01/01 20:05:13;;;;;;;5.75;2.75;;;11.30;99.90;;;;;;7324942;32;20111;-63
2022/01/01 20:09:16;;;;;;;5.15;2.58;;;11.30;99.90;;;;;;7331890;32;20137;-64
2022/01/01 20:13:18;;;;;;;5.78;2.53;;;11.20;99.90;;;;;;7319831;32;20202;-63
2022/01/01 20:17:20;;;;;;;7.50;2.85;;;11.20;99.90;;;;;;7331212;32;20266;-62
2022/01/01 20:21:21;;;;;;;7.15;2.70;;;11.20;99.90;;;;;;7321669;32;20762;-62
2022/01/01 20:25:24;;;;;;;6.20;2.70;;;11.30;99.90;;;;;;7327717;32;20138;-63
2022/01/01 20:29:26;;;;;;;6.85;3.10;;;11.30;99.90;;;;;;7331138;32;20206;-63
2022/01/01 20:33:28;;;;;;;5.22;2.85;;;11.20;99.90;;;;;;7331663;32;20142;-63
2022/01/01 20:37:41;;;;;;;5.40;2.78;;;11.20;99.90;;;;;;7322651;32;20488;-62
2022/01/01 20:41:44;;;;;;;5.90;2.67;;;11.20;99.90;;;;;;7323979;32;20111;-63
2022/01/01 20:45:45;;;;;;;8.73;3.08;;;11.10;99.90;;;;;;7330693;32;20152;-63
2022/01/01 20:49:47;;;;;;;7.80;3.25;;;11.10;99.90;;;;;;7326619;32;20694;-63
2022/01/01 20:53:50;;;;;;;5.50;2.62;;;11.10;99.90;;;;;;7325424;32;20201;-64
2022/01/01 20:57:55;;;;;;;4.53;3.25;;;11.00;99.90;;;;;;7319384;32;20126;-62
2022/01/01 21:02:00;;;;;;;6.15;3.20;;;11.10;99.90;;;;;;7326431;32;20566;-63
2022/01/01 21:06:08;;;;;;;6.62;3.20;;;11.00;99.90;;;;;;7328688;32;20431;-62
2022/01/01 21:10:11;;;;;;;5.37;2.62;;;11.00;99.90;;;;;;7327312;32;20120;-62
2022/01/01 21:14:16;;;;;;;6.35;2.92;;;11.00;99.90;;;;;;7327805;32;20126;-62